Time;durP1;ratioP1;P1;durP2;ratioP2;P2;SDS_P1;SDS_P2;PMS_P1;PMS_P2;Temp;Humidity;BMP_temperature;BMP_pressure;BME280_temperature;BME280_humidity;BME280_pressure;Samples;Min_cycle;Max_cycle;Signal;HPM_P1;HPM_P2
2023/08/20 00:01:58;;;;;;;0.17;0.10;;;;;;;25.81;83.72;99976.22;7399849;19;20432;-83
2023/08/20 00:04:27;;;;;;;0.20;0.10;;;;;;;25.37;100.00;99984.38;7407995;19;20018;-83
2023/08/20 00:06:54;;;;;;;2.25;0.75;;;;;;;18.10;100.00;100007.50;7394510;19;20019;-84
2023/08/20 00:09:20;;;;;;;0.32;0.32;;;;;;;17.72;100.00;100000.09;7395056;19;20014;-83
2023/08/20 00:11:46;;;;;;;1.88;0.57;;;;;;;18.05;100.00;99996.28;7395616;19;20442;-82
2023/08/20 00:14:16;;;;;;;0.20;0.20;;;;;;;19.64;100.00;99989.50;7397677;19;20075;-82
2023/08/20 00:16:43;;;;;;;0.38;0.38;;;;;;;17.79;100.00;99991.09;7396491;19;20042;-83
2023/08/20 00:19:10;;;;;;;0.10;0.10;;;;;;;34.39;62.08;99972.84;7392359;19;20014;-83
2023/08/20 00:21:42;;;;;;;9.23;1.13;;;;;;;40.63;39.28;99964.09;7393468;19;20018;-83
2023/08/20 00:24:09;;;;;;;0.10;0.10;;;;;;;35.79;49.30;99959.13;7393852;19;20460;-82
2023/08/20 00:26:35;;;;;;;1.10;0.30;;;;;;;40.72;38.16;99965.06;7393729;19;20024;-82
2023/08/20 00:29:02;;;;;;;0.55;0.10;;;;;;;30.03;47.98;99978.22;7392739;19;20034;-83
2023/08/20 00:31:28;;;;;;;0.75;0.22;;;;;;;22.07;100.00;99997.59;7393703;19;20444;-83
2023/08/20 00:33:55;;;;;;;1.08;0.20;;;;;;;39.43;41.38;99963.97;7395169;19;20033;-83
2023/08/20 00:36:21;;;;;;;0.20;0.20;;;;;;;41.58;34.70;99963.00;7394834;19;20014;-82
2023/08/20 00:38:47;;;;;;;1.83;0.50;;;;;;;31.83;65.33;99977.69;7392688;19;20020;-83
2023/08/20 00:41:13;;;;;;;0.45;0.45;;;;;;;25.96;70.01;99991.19;7394426;19;20031;-83
2023/08/20 00:43:39;;;;;;;0.10;0.10;;;;;;;20.16;100.00;99997.47;7400012;19;20049;-82
2023/08/20 00:46:06;;;;;;;0.10;0.10;;;;;;;19.22;100.00;99993.09;7401092;19;20010;-83
2023/08/20 00:48:34;;;;;;;0.20;0.10;;;;;;;18.91;100.00;99989.59;7392844;19;20022;-83
2023/08/20 00:51:00;;;;;;;0.32;0.30;;;;;;;19.61;100.00;100004.69;7393163;19;20045;-83
2023/08/20 00:53:26;;;;;;;0.20;0.20;;;;;;;17.46;100.00;100008.13;7395094;19;20085;-83
2023/08/20 00:55:52;;;;;;;0.25;0.20;;;;;;;17.13;100.00;100008.28;7393046;19;20025;-82
2023/08/20 00:58:19;;;;;;;0.38;0.38;;;;;;;15.46;100.00;100017.97;7393302;19;20018;-82
2023/08/20 01:00:45;;;;;;;3.10;0.45;;;;;;;15.37;100.00;100026.56;7390626;19;20006;-82
2023/08/20 01:03:11;;;;;;;0.45;0.30;;;;;;;15.45;100.00;100016.41;7390628;19;20025;-83
2023/08/20 01:05:48;;;;;;;0.10;0.10;;;;;;;15.77;100.00;100018.56;7393063;19;20026;-83
2023/08/20 01:08:37;;;;;;;9.57;0.52;;;;;;;15.84;100.00;100014.50;7390962;19;20019;-81
2023/08/20 01:11:10;;;;;;;0.73;0.50;;;;;;;15.94;100.00;100024.97;7394488;19;20050;-83
2023/08/20 01:13:36;;;;;;;0.10;0.10;;;;;;;16.20;100.00;100030.34;7391986;19;20026;-82
2023/08/20 01:16:02;;;;;;;0.75;0.50;;;;;;;16.58;100.00;100029.63;7392058;19;20019;-83
2023/08/20 01:18:28;;;;;;;0.20;0.20;;;;;;;15.92;100.00;100026.75;7390575;19;20018;-82
2023/08/20 01:20:59;;;;;;;0.43;0.10;;;;;;;15.89;100.00;100024.97;7391205;19;20010;-82
2023/08/20 01:23:31;;;;;;;0.10;0.10;;;;;;;15.70;100.00;100021.09;7390898;19;20484;-82
2023/08/20 01:26:14;;;;;;;0.13;0.13;;;;;;;15.79;100.00;100015.22;7391053;19;20026;-82
2023/08/20 01:28:43;;;;;;;0.10;0.10;;;;;;;15.74;100.00;100027.25;7390170;19;20018;-83
2023/08/20 01:31:10;;;;;;;0.50;0.50;;;;;;;15.50;100.00;100019.25;7394125;19;20025;-83
2023/08/20 01:33:37;;;;;;;9.23;0.30;;;;;;;15.50;100.00;100026.91;7394387;19;20022;-82
2023/08/20 01:36:09;;;;;;;0.15;0.15;;;;;;;15.53;100.00;100034.31;7395509;19;20035;-81
2023/08/20 01:38:36;;;;;;;0.55;0.17;;;;;;;15.97;100.00;100037.25;7391160;19;20022;-81
2023/08/20 01:41:04;;;;;;;0.38;0.20;;;;;;;16.06;100.00;100037.00;7390541;19;20048;-82
2023/08/20 01:43:30;;;;;;;0.40;0.30;;;;;;;16.33;100.00;100044.66;7394152;19;20022;-82
2023/08/20 01:45:56;;;;;;;1.25;0.45;;;;;;;16.13;100.00;100042.13;7388996;19;20483;-83
2023/08/20 01:48:22;;;;;;;0.38;0.20;;;;;;;15.67;100.00;100050.97;7391491;19;20074;-82
2023/08/20 01:50:48;;;;;;;14.50;0.63;;;;;;;16.01;100.00;100046.19;7392530;19;20022;-83
2023/08/20 01:53:14;;;;;;;0.10;0.10;;;;;;;20.24;100.00;100043.63;7390274;19;20017;-83
2023/08/20 01:55:42;;;;;;;0.10;0.10;;;;;;;16.20;100.00;100043.66;7395684;19;20018;-83
2023/08/20 01:58:08;;;;;;;4.32;0.20;;;;;;;27.39;77.37;100039.97;7391034;19;20103;-83
2023/08/20 02:00:34;;;;;;;0.22;0.22;;;;;;;38.14;45.59;100026.19;7390950;19;20015;-83
2023/08/20 02:03:00;;;;;;;0.65;0.20;;;;;;;33.90;42.13;100027.19;7391563;19;20010;-83
2023/08/20 02:05:26;;;;;;;0.25;0.25;;;;;;;19.18;100.00;100058.34;7391998;19;20033;-83
2023/08/20 02:07:53;;;;;;;0.38;0.38;;;;;;;17.73;100.00;100066.41;7389942;19;20015;-82
2023/08/20 02:10:21;;;;;;;0.10;0.08;;;;;;;16.71;100.00;100059.25;7390535;19;20021;-83
2023/08/20 02:12:47;;;;;;;0.10;0.10;;;;;;;18.15;100.00;100060.25;7390304;19;20027;-83
2023/08/20 02:15:13;;;;;;;0.10;0.00;;;;;;;17.89;100.00;100068.38;7390299;19;20373;-84
2023/08/20 02:17:39;;;;;;;0.30;0.20;;;;;;;15.68;100.00;100074.19;7388892;19;20472;-83
2023/08/20 02:20:09;;;;;;;5.28;0.45;;;;;;;14.88;100.00;100064.31;7391178;19;20137;-83
2023/08/20 02:22:36;;;;;;;0.20;0.10;;;;;;;14.81;100.00;100059.94;7391441;19;20028;-83
2023/08/20 02:25:02;;;;;;;0.20;0.20;;;;;;;14.92;100.00;100056.44;7391252;19;20018;-83
2023/08/20 02:27:28;;;;;;;0.43;0.10;;;;;;;14.66;100.00;100058.56;7392085;19;20411;-82
2023/08/20 02:29:54;;;;;;;0.10;0.10;;;;;;;14.63;100.00;100065.94;7388873;19;20022;-83
2023/08/20 02:32:20;;;;;;;0.10;0.10;;;;;;;14.53;100.00;100056.16;7391469;19;20025;-82
2023/08/20 02:34:56;;;;;;;0.30;0.30;;;;;;;14.51;100.00;100058.69;7390388;19;20037;-83
2023/08/20 02:37:26;;;;;;;0.50;0.30;;;;;;;15.28;100.00;100066.06;7392118;19;20027;-83
2023/08/20 02:39:52;;;;;;;0.10;0.10;;;;;;;17.22;100.00;100073.50;7389353;19;20026;-83
2023/08/20 02:42:18;;;;;;;0.52;0.38;;;;;;;18.27;100.00;100065.81;7387844;19;20039;-83
2023/08/20 02:44:44;;;;;;;0.52;0.47;;;;;;;17.26;100.00;100073.25;7389344;19;20555;-82
2023/08/20 02:47:10;;;;;;;3.38;0.57;;;;;;;22.39;100.00;100066.19;7389199;19;20028;-83
2023/08/20 02:49:36;;;;;;;0.10;0.10;;;;;;;25.89;93.58;100051.91;7390086;19;20954;-83
2023/08/20 02:52:03;;;;;;;0.30;0.30;;;;;;;36.01;53.77;100039.91;7391269;19;20070;-83
2023/08/20 02:54:31;;;;;;;0.20;0.20;;;;;;;39.73;39.46;100037.16;7390215;19;20018;-83
2023/08/20 02:56:58;;;;;;;0.35;0.15;;;;;;;29.07;58.93;100057.81;7391633;19;20501;-83
2023/08/20 02:59:24;;;;;;;0.45;0.30;;;;;;;27.01;71.04;100046.03;7390984;19;20040;-83
2023/08/20 03:01:51;;;;;;;0.10;0.10;;;;;;;28.68;62.47;100045.50;7393702;19;20021;-83
2023/08/20 03:04:17;;;;;;;0.63;0.55;;;;;;;34.19;56.35;100044.78;7393461;19;20015;-83
2023/08/20 03:06:43;;;;;;;3.80;0.50;;;;;;;40.27;37.32;100041.84;7397807;19;20052;-84
2023/08/20 03:09:10;;;;;;;0.20;0.20;;;;;;;38.24;39.25;100052.78;7393875;19;20015;-83
2023/08/20 03:11:36;;;;;;;0.20;0.20;;;;;;;38.18;37.18;100061.28;7398507;19;20018;-83
2023/08/20 03:14:02;;;;;;;0.45;0.30;;;;;;;34.89;42.33;100062.38;7396511;19;20484;-83
2023/08/20 03:16:28;;;;;;;0.10;0.10;;;;;;;39.69;34.30;100058.19;7395509;19;20480;-83
2023/08/20 03:18:54;;;;;;;3.70;0.30;;;;;;;40.29;32.45;100064.53;7394869;19;20468;-83
2023/08/20 03:21:20;;;;;;;0.10;0.10;;;;;;;40.23;31.94;100070.94;7393820;19;20508;-83
2023/08/20 03:23:46;;;;;;;0.10;0.10;;;;;;;40.48;31.67;100070.25;7393108;19;20070;-83
2023/08/20 03:26:12;;;;;;;0.40;0.17;;;;;;;40.71;30.64;100063.69;7394657;19;20353;-82
2023/08/20 03:28:39;;;;;;;0.10;0.10;;;;;;;41.34;29.81;100066.25;7393665;19;20007;-83
2023/08/20 03:31:05;;;;;;;0.10;0.10;;;;;;;32.40;38.85;100085.84;7398160;19;20014;-82
2023/08/20 03:33:36;;;;;;;0.15;0.15;;;;;;;25.42;51.39;100086.88;7396281;19;20022;-83
2023/08/20 03:36:02;;;;;;;0.30;0.30;;;;;;;21.59;89.43;100093.19;7399321;19;20026;-83
2023/08/20 03:38:28;;;;;;;1.30;0.47;;;;;;;23.58;76.81;100101.09;7395970;19;20015;-83
2023/08/20 03:40:55;;;;;;;0.20;0.20;;;;;;;34.19;50.83;100082.38;7393277;19;20032;-84
2023/08/20 03:43:21;;;;;;;0.10;0.10;;;;;;;21.38;94.51;100102.91;7394323;19;20479;-83
2023/08/20 03:45:53;;;;;;;1.65;0.10;;;;;;;23.42;100.00;100108.75;7394622;19;20402;-82
2023/08/20 03:48:20;;;;;;;0.38;0.38;;;;;;;18.83;100.00;100107.19;7393614;19;20018;-84
2023/08/20 03:50:47;;;;;;;0.30;0.30;;;;;;;18.25;100.00;100116.34;7395578;19;20018;-82
2023/08/20 03:53:13;;;;;;;2.17;0.20;;;;;;;18.08;100.00;100114.38;7397228;19;20050;-83
2023/08/20 03:55:39;;;;;;;0.10;0.10;;;;;;;17.95;100.00;100122.63;7396994;19;20026;-83
2023/08/20 03:58:05;;;;;;;0.10;0.10;;;;;;;17.81;100.00;100125.78;7394219;19;20422;-82
2023/08/20 04:00:31;;;;;;;0.25;0.17;;;;;;;17.64;100.00;100125.88;7395421;19;20038;-82
2023/08/20 04:02:57;;;;;;;0.13;0.13;;;;;;;17.55;100.00;100123.34;7397402;19;20007;-82
2023/08/20 04:05:23;;;;;;;0.30;0.30;;;;;;;17.51;100.00;100128.47;7403636;19;20031;-82
2023/08/20 04:07:49;;;;;;;0.13;0.13;;;;;;;17.45;100.00;100119.25;7398205;19;20042;-82
2023/08/20 04:10:15;;;;;;;0.20;0.10;;;;;;;17.36;100.00;100127.97;7391737;19;20015;-83
2023/08/20 04:12:42;;;;;;;0.10;0.10;;;;;;;17.31;100.00;100126.69;7397344;19;20074;-83
2023/08/20 04:15:08;;;;;;;0.10;0.10;;;;;;;17.29;100.00;100117.22;7395314;19;20360;-82
2023/08/20 04:17:34;;;;;;;0.10;0.10;;;;;;;17.16;100.00;100122.63;7394360;19;20021;-83
2023/08/20 04:20:00;;;;;;;0.10;0.10;;;;;;;17.12;100.00;100128.53;7395736;19;20572;-82
2023/08/20 04:22:30;;;;;;;0.13;0.13;;;;;;;17.15;100.00;100124.66;7392021;19;20006;-83
2023/08/20 04:24:56;;;;;;;2.17;0.65;;;;;;;18.07;100.00;100124.13;7392463;19;20050;-82
2023/08/20 04:27:22;;;;;;;0.20;0.20;;;;;;;17.18;100.00;100134.13;7392092;19;20022;-82
2023/08/20 04:29:49;;;;;;;0.10;0.10;;;;;;;17.30;100.00;100132.84;7394042;19;20014;-82
2023/08/20 04:32:15;;;;;;;0.17;0.17;;;;;;;17.05;100.00;100131.09;7393871;19;20361;-82
2023/08/20 04:34:41;;;;;;;4.57;0.43;;;;;;;16.98;100.00;100132.38;7394098;19;20020;-82
2023/08/20 04:37:07;;;;;;;0.20;0.20;;;;;;;16.92;100.00;100133.66;7393586;19;20028;-82
2023/08/20 04:39:33;;;;;;;0.10;0.10;;;;;;;16.87;100.00;100140.81;7391968;19;20014;-83
2023/08/20 04:42:00;;;;;;;0.20;0.10;;;;;;;16.83;100.00;100143.13;7390902;19;20539;-82
2023/08/20 04:44:27;;;;;;;0.10;0.10;;;;;;;16.79;100.00;100139.03;7391309;19;20015;-82
2023/08/20 04:46:55;;;;;;;0.10;0.10;;;;;;;16.75;100.00;100146.97;7390489;19;20018;-83
2023/08/20 04:49:21;;;;;;;0.13;0.13;;;;;;;16.75;100.00;100146.97;7393421;19;20006;-82
2023/08/20 04:51:47;;;;;;;0.10;0.10;;;;;;;16.72;100.00;100150.81;7393480;19;20019;-83
2023/08/20 04:54:13;;;;;;;1.05;0.20;;;;;;;16.69;100.00;100161.03;7392754;19;20018;-83
2023/08/20 04:56:39;;;;;;;0.30;0.30;;;;;;;16.66;100.00;100156.41;7392539;19;20045;-82
2023/08/20 04:59:05;;;;;;;0.20;0.20;;;;;;;16.64;100.00;100156.94;7392402;19;20493;-82
2023/08/20 05:02:04;;;;;;;2.20;0.73;;;;;;;16.64;100.00;100165.38;7390577;19;20030;-83
2023/08/20 05:04:59;;;;;;;0.15;0.10;;;;;;;16.59;100.00;100156.91;7392193;19;20010;-83
2023/08/20 05:07:25;;;;;;;0.57;0.20;;;;;;;16.57;100.00;100154.63;7392905;19;20011;-82
2023/08/20 05:09:51;;;;;;;0.20;0.20;;;;;;;16.54;100.00;100158.47;7391414;19;20011;-85
2023/08/20 05:12:18;;;;;;;0.13;0.13;;;;;;;16.46;100.00;100171.44;7392952;19;20022;-84
2023/08/20 05:14:44;;;;;;;0.77;0.20;;;;;;;16.48;100.00;100168.88;7392501;19;20409;-85
2023/08/20 05:17:10;;;;;;;0.30;0.20;;;;;;;16.50;100.00;100171.97;7391820;19;20417;-83
2023/08/20 05:19:36;;;;;;;0.82;0.30;;;;;;;16.56;100.00;100163.56;7392645;19;20014;-85
2023/08/20 05:22:02;;;;;;;0.60;0.60;;;;;;;16.56;100.00;100169.97;7389306;19;20015;-85
2023/08/20 05:24:32;;;;;;;1.17;0.40;;;;;;;16.60;100.00;100167.66;7390817;19;20010;-85
2023/08/20 05:27:09;;;;;;;0.20;0.20;;;;;;;16.59;100.00;100163.31;7390193;19;20022;-85
2023/08/20 05:29:37;;;;;;;0.10;0.10;;;;;;;16.63;100.00;100168.69;7391840;19;20014;-84
2023/08/20 05:32:03;;;;;;;0.10;0.10;;;;;;;16.61;100.00;100172.00;7391769;19;20014;-83
2023/08/20 05:34:29;;;;;;;0.25;0.25;;;;;;;16.63;100.00;100175.06;7392576;19;20028;-84
2023/08/20 05:36:56;;;;;;;0.30;0.30;;;;;;;16.66;100.00;100178.91;7391658;19;20010;-84
2023/08/20 05:39:23;;;;;;;5.38;0.63;;;;;;;16.70;100.00;100167.44;7390029;19;20014;-84
2023/08/20 05:41:49;;;;;;;0.13;0.13;;;;;;;16.74;100.00;100173.56;7394513;19;20007;-84
2023/08/20 05:44:15;;;;;;;0.30;0.30;;;;;;;16.79;100.00;100182.00;7389114;19;20014;-84
2023/08/20 05:46:43;;;;;;;0.65;0.13;;;;;;;16.92;100.00;100178.66;7389010;19;20440;-85
2023/08/20 05:49:09;;;;;;;0.52;0.52;;;;;;;17.03;100.00;100184.31;7389645;19;20010;-85
2023/08/20 05:51:35;;;;;;;0.30;0.10;;;;;;;17.12;100.00;100187.63;7391441;19;20014;-85
2023/08/20 05:54:01;;;;;;;0.10;0.10;;;;;;;17.17;100.00;100189.66;7397276;19;20085;-84
2023/08/20 05:56:28;;;;;;;6.65;1.23;;;;;;;17.22;100.00;100186.06;7390419;19;20018;-84
2023/08/20 05:58:54;;;;;;;0.20;0.10;;;;;;;17.30;100.00;100189.91;7391206;19;20010;-85
2023/08/20 06:01:20;;;;;;;0.22;0.13;;;;;;;17.29;100.00;100190.44;7389575;19;20389;-86
2023/08/20 06:03:47;;;;;;;1.08;0.57;;;;;;;17.33;100.00;100196.56;7389765;19;20373;-85
2023/08/20 06:06:13;;;;;;;0.10;0.10;;;;;;;17.28;100.00;100200.16;7394048;19;20019;-84
2023/08/20 06:08:39;;;;;;;0.20;0.20;;;;;;;17.40;100.00;100201.66;7391836;19;20018;-84
2023/08/20 06:11:05;;;;;;;1.95;0.68;;;;;;;17.37;100.00;100197.06;7393610;19;20022;-84
2023/08/20 06:13:34;;;;;;;0.15;0.10;;;;;;;17.37;100.00;100209.09;7391084;19;20361;-84
2023/08/20 06:16:00;;;;;;;0.10;0.10;;;;;;;17.32;100.00;100206.31;7391338;19;20021;-85
2023/08/20 06:18:26;;;;;;;0.35;0.17;;;;;;;17.34;100.00;100212.97;7392096;19;20052;-85
2023/08/20 06:20:52;;;;;;;0.50;0.40;;;;;;;17.34;100.00;100212.97;7393171;19;20010;-85
2023/08/20 06:23:18;;;;;;;0.20;0.20;;;;;;;17.35;100.00;100216.50;7395355;19;20011;-85
2023/08/20 06:25:45;;;;;;;1.63;0.35;;;;;;;17.38;100.00;100221.91;7395212;19;20015;-85
2023/08/20 06:28:11;;;;;;;0.65;0.50;;;;;;;17.46;100.00;100222.13;7392374;19;20011;-85
2023/08/20 06:30:38;;;;;;;0.30;0.30;;;;;;;17.55;100.00;100221.91;7394917;19;20018;-85
2023/08/20 06:33:04;;;;;;;0.50;0.40;;;;;;;17.61;100.00;100225.47;7391412;19;20025;-85
2023/08/20 06:35:30;;;;;;;0.70;0.35;;;;;;;17.65;100.00;100228.78;7394307;19;20091;-85
2023/08/20 06:37:56;;;;;;;0.52;0.50;;;;;;;17.76;100.00;100223.13;7393337;19;20087;-85
2023/08/20 06:40:22;;;;;;;0.55;0.28;;;;;;;17.82;100.00;100221.06;7393197;19;20022;-85
2023/08/20 06:42:48;;;;;;;0.25;0.20;;;;;;;17.99;100.00;100224.63;7394484;19;20003;-85
2023/08/20 06:45:15;;;;;;;0.73;0.45;;;;;;;18.19;100.00;100231.97;7392704;19;20108;-85
2023/08/20 06:47:41;;;;;;;2.47;0.20;;;;;;;18.45;100.00;100220.34;7395018;19;20018;-85
2023/08/20 06:50:07;;;;;;;0.22;0.20;;;;;;;18.63;100.00;100225.34;7394306;19;20021;-84
2023/08/20 06:52:33;;;;;;;0.30;0.30;;;;;;;18.74;100.00;100228.09;7393532;19;20018;-85
2023/08/20 06:54:59;;;;;;;0.50;0.35;;;;;;;18.85;100.00;100225.19;7394136;19;20030;-85
2023/08/20 06:57:26;;;;;;;0.20;0.00;;;;;;;18.93;100.00;100232.56;7392997;19;20015;-85
2023/08/20 06:59:52;;;;;;;0.80;0.60;;;;;;;19.03;100.00;100223.78;7392719;19;20006;-85
2023/08/20 07:02:18;;;;;;;0.80;0.40;;;;;;;19.15;100.00;100233.69;7389999;19;20044;-85
2023/08/20 07:04:44;;;;;;;0.17;0.17;;;;;;;20.34;100.00;100242.78;7395048;19;20037;-85
2023/08/20 07:07:10;;;;;;;0.68;0.68;;;;;;;19.45;100.00;100238.06;7398332;19;20553;-85
2023/08/20 07:09:38;;;;;;;9.68;0.70;;;;;;;19.58;100.00;100241.03;7396066;19;20063;-85
2023/08/20 07:12:04;;;;;;;0.95;0.30;;;;;;;19.64;100.00;100238.91;7390634;19;20021;-85
2023/08/20 07:14:30;;;;;;;0.47;0.30;;;;;;;19.77;100.00;100234.69;7393674;19;20437;-85
2023/08/20 07:16:56;;;;;;;2.72;0.10;;;;;;;20.00;100.00;100247.28;7393320;19;20027;-85
2023/08/20 07:19:22;;;;;;;1.17;0.17;;;;;;;20.26;100.00;100236.97;7390524;19;20007;-85
2023/08/20 07:21:49;;;;;;;0.70;0.50;;;;;;;20.52;100.00;100250.50;7391579;19;20019;-85
2023/08/20 07:24:15;;;;;;;0.30;0.30;;;;;;;20.81;100.00;100241.06;7391455;19;20014;-85
2023/08/20 07:26:42;;;;;;;3.50;0.57;;;;;;;20.96;100.00;100235.69;7386978;19;20044;-85
2023/08/20 07:29:08;;;;;;;0.90;0.43;;;;;;;21.12;100.00;100237.53;7391947;19;20022;-85
2023/08/20 07:31:34;;;;;;;1.48;0.47;;;;;;;21.26;100.00;100241.19;7388582;19;20014;-85
2023/08/20 07:34:02;;;;;;;0.57;0.28;;;;;;;21.44;100.00;100250.94;7387902;19;20010;-84
2023/08/20 07:36:28;;;;;;;2.42;0.45;;;;;;;21.65;100.00;100252.63;7392537;19;20019;-84
2023/08/20 07:38:55;;;;;;;0.20;0.10;;;;;;;21.62;100.00;100244.41;7386966;19;20014;-84
2023/08/20 07:41:22;;;;;;;8.18;0.95;;;;;;;21.54;100.00;100244.31;7390702;19;20539;-84
2023/08/20 07:43:49;;;;;;;6.55;1.98;;;;;;;21.59;100.00;100249.09;7387121;19;20019;-84
2023/08/20 07:46:16;;;;;;;0.20;0.20;;;;;;;21.58;100.00;100249.66;7393376;19;20026;-84
2023/08/20 07:48:43;;;;;;;1.38;0.47;;;;;;;21.57;100.00;100256.63;7393358;19;20018;-84
2023/08/20 07:51:09;;;;;;;3.25;0.65;;;;;;;21.53;100.00;100261.84;7395625;19;20014;-84
2023/08/20 07:53:35;;;;;;;0.10;0.00;;;;;;;21.48;100.00;100245.72;7399569;19;20046;-84
2023/08/20 07:56:02;;;;;;;0.20;0.15;;;;;;;21.48;100.00;100254.22;7397165;19;20030;-84
2023/08/20 07:58:28;;;;;;;0.28;0.28;;;;;;;21.49;100.00;100252.91;7394272;19;20024;-84
2023/08/20 08:00:55;;;;;;;2.38;0.65;;;;;;;21.53;100.00;100250.50;7393090;19;20026;-84
2023/08/20 08:03:21;;;;;;;0.52;0.38;;;;;;;21.75;100.00;100252.94;7395340;19;20071;-84
2023/08/20 08:05:48;;;;;;;0.13;0.13;;;;;;;21.84;100.00;100259.00;7400007;19;20014;-84
2023/08/20 08:08:18;;;;;;;0.47;0.20;;;;;;;21.89;100.00;100254.53;7393023;19;20022;-84
2023/08/20 08:10:46;;;;;;;0.10;0.00;;;;;;;21.95;100.00;100255.19;7395809;19;20021;-84
2023/08/20 08:13:16;;;;;;;0.85;0.10;;;;;;;22.09;100.00;100261.63;7394810;19;20046;-84
2023/08/20 08:15:42;;;;;;;1.45;0.32;;;;;;;22.37;100.00;100265.41;7394688;19;20528;-84
2023/08/20 08:18:08;;;;;;;0.10;0.03;;;;;;;22.68;100.00;100266.56;7394253;19;20018;-84
2023/08/20 08:20:34;;;;;;;3.95;0.82;;;;;;;23.04;100.00;100269.66;7393755;19;20006;-84
2023/08/20 08:23:01;;;;;;;5.88;0.45;;;;;;;23.54;100.00;100272.03;7396236;19;20010;-84
2023/08/20 08:25:27;;;;;;;0.40;0.40;;;;;;;23.83;100.00;100279.28;7396334;19;20022;-85
2023/08/20 08:27:53;;;;;;;0.08;0.00;;;;;;;24.00;100.00;100282.44;7395453;19;20022;-84
2023/08/20 08:30:19;;;;;;;0.10;0.10;;;;;;;24.13;100.00;100278.00;7394279;19;20014;-85
2023/08/20 08:32:45;;;;;;;3.33;0.20;;;;;;;24.12;100.00;100282.94;7399380;19;20116;-85
2023/08/20 08:35:12;;;;;;;1.20;0.47;;;;;;;24.17;100.00;100284.09;7395567;19;20018;-84
2023/08/20 08:37:38;;;;;;;0.98;0.28;;;;;;;24.22;100.00;100263.25;7395626;19;20027;-84
2023/08/20 08:40:07;;;;;;;7.68;0.50;;;;;;;24.21;100.00;100267.44;7394477;19;20042;-85
2023/08/20 08:42:33;;;;;;;0.60;0.35;;;;;;;24.26;100.00;100270.09;7395641;19;20022;-85
2023/08/20 08:45:00;;;;;;;1.38;0.13;;;;;;;24.38;100.00;100270.56;7395275;19;20078;-85
2023/08/20 08:47:27;;;;;;;1.27;0.45;;;;;;;24.51;100.00;100278.97;7394857;19;20511;-85
2023/08/20 08:49:57;;;;;;;0.17;0.00;;;;;;;24.59;100.00;100276.91;7394897;19;20022;-84
2023/08/20 08:52:23;;;;;;;9.38;0.68;;;;;;;24.68;100.00;100287.78;7393674;19;20352;-85
2023/08/20 08:54:50;;;;;;;2.35;0.52;;;;;;;24.73;100.00;100284.00;7392227;19;20099;-85
2023/08/20 08:57:16;;;;;;;0.28;0.10;;;;;;;24.78;100.00;100285.94;7391794;19;20018;-86
2023/08/20 08:59:42;;;;;;;0.20;0.10;;;;;;;24.88;100.00;100284.09;7392786;19;20362;-86
2023/08/20 09:02:10;;;;;;;0.10;0.10;;;;;;;24.90;100.00;100281.44;7390975;19;20006;-85
2023/08/20 09:04:41;;;;;;;0.15;0.15;;;;;;;24.87;100.00;100293.19;7394578;19;20019;-85
2023/08/20 09:07:14;;;;;;;1.77;0.40;;;;;;;24.73;100.00;100284.00;7389754;19;20046;-85
2023/08/20 09:09:45;;;;;;;0.77;0.17;;;;;;;24.50;100.00;100288.81;7392517;19;20002;-85
2023/08/20 09:12:17;;;;;;;0.88;0.35;;;;;;;24.22;100.00;100283.16;7393386;19;20045;-86
2023/08/20 09:14:51;;;;;;;2.28;0.47;;;;;;;24.09;100.00;100284.81;7398390;19;20027;-85
2023/08/20 09:17:19;;;;;;;6.22;0.43;;;;;;;24.18;100.00;100268.53;7394331;19;20014;-86
2023/08/20 09:19:46;;;;;;;0.88;0.13;;;;;;;24.35;100.00;100277.34;7391172;19;20014;-86
2023/08/20 09:22:13;;;;;;;0.22;0.10;;;;;;;24.52;100.00;100269.84;7391136;19;20488;-86
2023/08/20 09:24:44;;;;;;;0.25;0.17;;;;;;;24.63;100.00;100265.91;7394371;19;20614;-86
2023/08/20 09:27:11;;;;;;;0.28;0.10;;;;;;;24.77;100.00;100270.19;7392515;19;20397;-87
2023/08/20 09:29:48;;;;;;;2.70;0.50;;;;;;;24.87;100.00;100271.16;7390147;19;20070;-85
2023/08/20 09:32:22;;;;;;;0.40;0.28;;;;;;;25.07;100.00;100264.56;7394880;19;20382;-87
2023/08/20 09:34:50;;;;;;;0.30;0.30;;;;;;;25.15;100.00;100259.63;7396022;19;20011;-85
2023/08/20 09:37:19;;;;;;;0.32;0.20;;;;;;;25.42;100.00;100266.56;7391685;19;20025;-85
2023/08/20 09:39:45;;;;;;;0.17;0.17;;;;;;;25.52;100.00;100256.09;7390254;19;20040;-85
2023/08/20 09:42:12;;;;;;;1.20;0.40;;;;;;;25.64;100.00;100259.31;7391576;19;20018;-86
2023/08/20 09:44:42;;;;;;;3.28;0.17;;;;;;;25.70;100.00;100265.59;7393894;19;20341;-84
2023/08/20 09:47:16;;;;;;;0.55;0.13;;;;;;;25.72;100.00;100262.94;7390163;19;20085;-86
2023/08/20 09:49:47;;;;;;;0.10;0.10;;;;;;;25.83;100.00;100256.06;7393967;19;20089;-84
2023/08/20 09:52:21;;;;;;;0.25;0.20;;;;;;;25.84;100.00;100266.13;7391211;19;20091;-84
2023/08/20 09:55:02;;;;;;;0.22;0.08;;;;;;;25.97;100.00;100265.94;7394092;19;20006;-86
2023/08/20 09:57:39;;;;;;;1.27;0.30;;;;;;;26.02;100.00;100262.88;7392932;19;20022;-85
2023/08/20 10:00:10;;;;;;;0.30;0.10;;;;;;;26.22;100.00;100255.44;7391884;19;20015;-84
2023/08/20 10:02:43;;;;;;;0.40;0.30;;;;;;;26.29;100.00;100268.97;7390160;19;20433;-84
2023/08/20 10:05:11;;;;;;;0.10;0.10;;;;;;;26.26;100.00;100264.38;7394861;19;20015;-83
2023/08/20 10:07:38;;;;;;;3.30;0.55;;;;;;;26.36;100.00;100261.69;7391801;19;20011;-84
2023/08/20 10:10:06;;;;;;;0.60;0.55;;;;;;;26.46;100.00;100266.22;7391253;19;20018;-87
2023/08/20 10:12:33;;;;;;;2.92;0.10;;;;;;;26.40;100.00;100264.91;7392754;19;20011;-85
2023/08/20 10:15:00;;;;;;;0.10;0.00;;;;;;;26.35;100.00;100260.16;7395304;19;20451;-85
2023/08/20 10:17:32;;;;;;;1.98;0.20;;;;;;;26.10;100.00;100257.19;7390535;19;20011;-83
2023/08/20 10:20:00;;;;;;;0.10;0.10;;;;;;;26.37;100.00;100251.78;7388393;19;20014;-83
2023/08/20 10:22:40;;;;;;;0.20;0.13;;;;;;;26.51;100.00;100250.22;7388810;19;20034;-83
2023/08/20 10:25:11;;;;;;;0.57;0.10;;;;;;;26.71;100.00;100249.16;7393470;19;20014;-82
2023/08/20 10:27:40;;;;;;;0.10;0.00;;;;;;;26.81;100.00;100242.25;7389350;19;20026;-84
2023/08/20 10:30:17;;;;;;;0.10;0.00;;;;;;;26.83;100.00;100259.59;7389555;19;20018;-83
2023/08/20 10:32:46;;;;;;;0.10;0.00;;;;;;;26.74;100.00;100257.38;7390671;19;20018;-83
2023/08/20 10:35:16;;;;;;;0.32;0.10;;;;;;;26.73;100.00;100263.66;7394250;19;20018;-83
2023/08/20 10:38:06;;;;;;;2.50;0.30;;;;;;;26.78;100.00;100263.44;7389338;19;20034;-83
2023/08/20 10:40:47;;;;;;;1.45;0.47;;;;;;;27.11;100.00;100255.63;7390730;19;20030;-83
2023/08/20 10:43:26;;;;;;;0.00;0.00;;;;;;;27.11;100.00;100254.88;7391308;19;20019;-83
2023/08/20 10:46:09;;;;;;;0.25;0.10;;;;;;;26.94;100.00;100259.16;7389672;19;20018;-82
2023/08/20 10:48:38;;;;;;;3.10;0.80;;;;;;;27.08;100.00;100256.03;7391286;19;20011;-82
2023/08/20 10:51:15;;;;;;;0.68;0.30;;;;;;;26.97;100.00;100260.88;7389361;19;20022;-84
2023/08/20 10:53:47;;;;;;;2.38;0.40;;;;;;;27.03;100.00;100264.25;7391621;19;20180;-82
2023/08/20 10:56:17;;;;;;;0.20;0.00;;;;;;;27.16;100.00;100263.22;7389689;19;20046;-82
2023/08/20 10:58:46;;;;;;;6.57;0.50;;;;;;;27.37;100.00;100265.78;7385601;19;20436;-84
2023/08/20 11:01:15;;;;;;;8.77;0.80;;;;;;;27.56;100.00;100266.00;7384389;19;20667;-85
2023/08/20 11:03:49;;;;;;;5.57;1.13;;;;;;;28.01;99.18;100259.91;7386841;19;20010;-85
2023/08/20 11:06:15;;;;;;;0.10;0.00;;;;;;;28.28;98.05;100266.50;7390332;19;20494;-83
2023/08/20 11:08:43;;;;;;;0.20;0.15;;;;;;;28.62;97.55;100265.72;7384629;19;20033;-82
2023/08/20 11:11:10;;;;;;;0.73;0.10;;;;;;;28.27;98.80;100270.69;7385872;19;20006;-83
2023/08/20 11:13:37;;;;;;;0.32;0.10;;;;;;;27.83;97.06;100266.91;7390599;19;20014;-85
2023/08/20 11:16:04;;;;;;;1.08;0.10;;;;;;;27.38;100.00;100268.06;7387193;19;20378;-83
2023/08/20 11:18:32;;;;;;;0.10;0.10;;;;;;;27.36;98.39;100265.03;7389638;19;20022;-83
2023/08/20 11:20:58;;;;;;;0.10;0.00;;;;;;;35.59;59.31;100247.94;7393941;19;20103;-84
2023/08/20 11:23:24;;;;;;;0.52;0.20;;;;;;;29.63;79.95;100245.88;7397410;19;20037;-83